Time;durP1;ratioP1;P1;durP2;ratioP2;P2;SDS_P1;SDS_P2;PMS_P1;PMS_P2;Temp;Humidity;BMP_temperature;BMP_pressure;BME280_temperature;BME280_humidity;BME280_pressure;Samples;Min_cycle;Max_cycle;Signal;HPM_P1;HPM_P2
2023/10/30 00:01:57;;;;;;;2.33;0.85;;;14.20;66.30;15.80;99579.00;;;;5011756;28;20209;-78
2023/10/30 00:04:24;;;;;;;1.13;0.75;;;14.20;66.30;15.80;99573.00;;;;5011591;28;20646;-79
2023/10/30 00:06:51;;;;;;;2.33;0.80;;;14.20;66.30;15.80;99578.00;;;;5010776;28;20259;-77
2023/10/30 00:09:19;;;;;;;4.05;0.80;;;14.20;66.30;15.80;99578.00;;;;5011890;28;20193;-77
2023/10/30 00:11:49;;;;;;;3.42;0.80;;;14.20;66.30;15.80;99578.00;;;;5011794;28;20288;-77
2023/10/30 00:14:16;;;;;;;4.50;0.82;;;14.20;66.40;15.80;99579.00;;;;5012300;28;20251;-78
2023/10/30 00:16:43;;;;;;;1.92;0.75;;;14.20;66.40;15.80;99575.00;;;;5011614;28;20217;-78
2023/10/30 00:19:10;;;;;;;2.53;1.13;;;14.20;66.50;15.70;99589.00;;;;5030286;28;20193;-77
2023/10/30 00:21:38;;;;;;;4.40;1.23;;;14.20;66.60;15.80;99594.00;;;;5016199;28;20643;-77
2023/10/30 00:24:06;;;;;;;2.50;0.75;;;14.20;66.60;15.70;99595.00;;;;5015130;28;20192;-77
2023/10/30 00:26:35;;;;;;;2.63;0.98;;;14.20;66.60;15.70;99596.00;;;;5015382;28;20192;-77
2023/10/30 00:29:03;;;;;;;3.15;0.55;;;14.20;66.60;15.70;99599.00;;;;5013845;28;20239;-78
2023/10/30 00:31:30;;;;;;;2.90;0.88;;;14.20;66.60;15.70;99598.00;;;;5007445;28;20221;-78
2023/10/30 00:33:57;;;;;;;2.90;0.70;;;14.10;66.60;15.70;99595.00;;;;5009477;28;20311;-78
2023/10/30 00:36:24;;;;;;;7.95;1.15;;;14.10;66.60;15.70;99598.00;;;;5007806;28;20193;-77
2023/10/30 00:38:51;;;;;;;3.45;0.85;;;14.10;66.60;15.70;99600.00;;;;5010164;28;20208;-77
2023/10/30 00:41:18;;;;;;;3.88;1.15;;;14.10;66.60;15.70;99600.00;;;;5014702;28;20212;-77
2023/10/30 00:43:46;;;;;;;2.88;0.60;;;14.10;66.60;15.70;99605.00;;;;5013832;28;20193;-78
2023/10/30 00:46:14;;;;;;;7.03;0.80;;;14.10;67.30;15.70;99616.00;;;;5017909;28;20283;-77
2023/10/30 00:48:41;;;;;;;3.20;0.55;;;14.10;66.80;15.70;99612.00;;;;5012945;28;20209;-77
2023/10/30 00:51:08;;;;;;;4.05;0.68;;;14.10;66.60;15.70;99617.00;;;;5015391;28;20197;-77
2023/10/30 00:53:35;;;;;;;3.45;0.70;;;14.10;66.70;15.70;99621.00;;;;5013676;28;20717;-78
2023/10/30 00:56:02;;;;;;;2.10;0.80;;;14.10;66.60;15.70;99624.00;;;;5011722;28;20197;-79
2023/10/30 00:58:29;;;;;;;3.10;0.90;;;14.10;66.70;15.70;99628.00;;;;5014261;28;20208;-77
2023/10/30 01:00:57;;;;;;;3.22;0.73;;;14.10;66.70;15.70;99642.00;;;;5011867;28;20209;-78
2023/10/30 01:03:24;;;;;;;5.05;0.70;;;14.00;66.70;15.60;99638.00;;;;5014280;28;20194;-78
2023/10/30 01:05:57;;;;;;;3.75;0.73;;;14.00;66.70;15.60;99647.00;;;;5012109;28;20541;-77
2023/10/30 01:08:24;;;;;;;5.18;0.70;;;14.00;66.70;15.60;99652.00;;;;5014284;28;20204;-77
2023/10/30 01:10:52;;;;;;;3.55;1.20;;;14.00;66.80;15.60;99647.00;;;;5013544;28;20204;-77
2023/10/30 01:13:20;;;;;;;2.90;0.80;;;14.00;66.80;15.60;99657.00;;;;5007164;28;20232;-77
2023/10/30 01:15:47;;;;;;;4.85;1.00;;;14.00;66.80;15.60;99656.00;;;;5009940;28;20704;-78
2023/10/30 01:18:15;;;;;;;2.72;0.80;;;14.00;66.80;15.60;99647.00;;;;5014343;28;20235;-77
2023/10/30 01:20:42;;;;;;;5.20;0.95;;;14.00;66.90;15.60;99650.00;;;;5013809;28;20292;-77
2023/10/30 01:23:09;;;;;;;4.47;0.85;;;14.00;66.90;15.60;99656.00;;;;5013819;28;20219;-77
2023/10/30 01:25:37;;;;;;;3.20;0.88;;;14.00;67.00;15.50;99662.00;;;;5013189;28;20201;-77
2023/10/30 01:28:04;;;;;;;2.20;0.63;;;14.00;67.60;15.60;99663.00;;;;5013145;28;20200;-77
2023/10/30 01:30:31;;;;;;;5.32;1.38;;;14.00;67.00;15.50;99665.00;;;;5021640;28;20685;-77
2023/10/30 01:32:58;;;;;;;4.50;0.80;;;14.00;67.00;15.60;99657.00;;;;5014221;28;20216;-77
2023/10/30 01:35:27;;;;;;;2.08;0.55;;;14.00;67.00;15.50;99665.00;;;;5013321;28;20200;-77
2023/10/30 01:37:54;;;;;;;2.63;0.88;;;14.00;67.00;15.50;99670.00;;;;5012682;28;20208;-77
2023/10/30 01:40:21;;;;;;;2.42;1.23;;;14.00;67.00;15.50;99664.00;;;;5011822;28;20203;-78
2023/10/30 01:42:48;;;;;;;3.25;0.80;;;14.00;67.00;15.50;99677.00;;;;5013215;28;20197;-77
2023/10/30 01:45:15;;;;;;;2.17;0.70;;;14.00;67.10;15.50;99663.00;;;;5011135;28;20635;-78
2023/10/30 01:47:43;;;;;;;4.25;0.95;;;14.00;67.10;15.50;99667.00;;;;5011320;28;20708;-77
2023/10/30 01:50:14;;;;;;;3.85;0.93;;;14.00;67.10;15.50;99668.00;;;;5012550;28;20220;-77
2023/10/30 01:52:46;;;;;;;5.32;1.08;;;14.00;67.10;15.50;99668.00;;;;5012728;28;20208;-78
2023/10/30 01:55:13;;;;;;;3.00;1.10;;;13.90;67.10;15.50;99673.00;;;;5012626;28;20201;-78
2023/10/30 01:57:41;;;;;;;2.05;0.80;;;14.00;67.20;15.50;99677.00;;;;5010562;28;20662;-77
2023/10/30 02:00:10;;;;;;;5.45;0.85;;;14.00;67.20;15.50;99671.00;;;;5012643;28;20204;-77
2023/10/30 02:02:39;;;;;;;3.72;0.80;;;14.00;67.20;15.50;99680.00;;;;5013057;28;20223;-78
2023/10/30 02:05:08;;;;;;;2.33;0.80;;;14.00;67.20;15.60;99680.00;;;;5009341;28;20666;-78
2023/10/30 02:07:36;;;;;;;4.05;1.02;;;14.00;67.20;15.60;99674.00;;;;5024062;28;20201;-78
2023/10/30 02:10:07;;;;;;;2.22;0.93;;;14.00;67.30;15.50;99671.00;;;;5013776;28;20201;-78
2023/10/30 02:12:35;;;;;;;3.78;0.73;;;14.00;67.30;15.60;99682.00;;;;5011752;28;20216;-77
2023/10/30 02:15:03;;;;;;;9.85;1.38;;;14.00;67.30;15.60;99679.00;;;;5010564;28;20217;-78
2023/10/30 02:17:30;;;;;;;3.13;0.80;;;14.00;67.30;15.60;99678.00;;;;5010055;28;20231;-77
2023/10/30 02:19:57;;;;;;;4.43;1.05;;;14.00;67.30;15.60;99683.00;;;;5013962;28;20203;-78
2023/10/30 02:22:24;;;;;;;2.95;1.08;;;14.00;67.30;15.60;99681.00;;;;5014856;28;20207;-78
2023/10/30 02:24:51;;;;;;;2.60;0.75;;;14.00;67.30;15.60;99684.00;;;;5012814;28;20283;-78
2023/10/30 02:27:19;;;;;;;2.83;0.80;;;14.00;67.30;15.60;99679.00;;;;5012944;28;20203;-78
2023/10/30 02:29:46;;;;;;;5.72;0.98;;;14.00;67.30;15.60;99677.00;;;;5012428;28;20284;-77
2023/10/30 02:32:13;;;;;;;3.08;0.80;;;14.00;67.30;15.60;99681.00;;;;5011380;28;20291;-78
2023/10/30 02:34:40;;;;;;;4.32;0.80;;;14.00;67.40;15.60;99687.00;;;;5012211;28;20232;-77
2023/10/30 02:37:07;;;;;;;1.88;0.70;;;14.00;67.40;15.60;99687.00;;;;5011795;28;20197;-78
2023/10/30 02:39:35;;;;;;;2.60;0.95;;;14.00;67.40;15.60;99681.00;;;;5009866;28;20666;-77
2023/10/30 02:42:04;;;;;;;2.45;0.82;;;14.00;67.40;15.60;99683.00;;;;5022689;28;20669;-76
2023/10/30 02:44:32;;;;;;;12.23;0.93;;;14.10;67.40;15.60;99690.00;;;;5012059;28;20891;-77
2023/10/30 02:46:59;;;;;;;2.50;0.90;;;14.10;67.40;15.60;99692.00;;;;5012459;28;20233;-77
2023/10/30 02:49:27;;;;;;;4.57;1.08;;;14.10;67.50;15.60;99692.00;;;;5012232;28;20302;-78
2023/10/30 02:51:54;;;;;;;2.67;0.70;;;14.00;67.40;15.60;99695.00;;;;5011945;28;20225;-76
2023/10/30 02:54:21;;;;;;;3.60;0.90;;;14.10;67.50;15.60;99693.00;;;;5011270;28;20225;-77
2023/10/30 02:56:48;;;;;;;4.00;0.90;;;14.10;67.50;15.60;99698.00;;;;5009963;28;20219;-76
2023/10/30 02:59:15;;;;;;;3.63;0.80;;;14.10;67.50;15.60;99700.00;;;;5010653;28;20204;-77
2023/10/30 03:01:43;;;;;;;2.70;0.60;;;14.10;67.60;15.60;99697.00;;;;5010427;28;20201;-77
2023/10/30 03:04:13;;;;;;;4.00;0.80;;;14.10;67.60;15.60;99700.00;;;;5010934;28;20212;-77
2023/10/30 03:06:40;;;;;;;5.13;1.15;;;14.10;67.70;15.60;99704.00;;;;5010709;28;20581;-76
2023/10/30 03:09:08;;;;;;;3.00;0.50;;;14.10;67.70;15.60;99720.00;;;;5009703;28;20207;-77
2023/10/30 03:11:35;;;;;;;3.72;0.60;;;14.10;67.70;15.60;99716.00;;;;5010370;28;20201;-78
2023/10/30 03:14:02;;;;;;;6.95;1.00;;;14.10;67.70;15.60;99711.00;;;;5009772;28;20663;-78
2023/10/30 03:16:29;;;;;;;2.97;0.80;;;14.10;67.70;15.60;99702.00;;;;5009827;28;20193;-76
2023/10/30 03:18:58;;;;;;;5.63;0.73;;;14.10;67.70;15.70;99699.00;;;;5011121;28;20697;-77
2023/10/30 03:21:25;;;;;;;6.72;1.35;;;14.10;67.70;15.70;99705.00;;;;5010223;28;20303;-77
2023/10/30 03:23:52;;;;;;;2.72;0.75;;;14.10;67.70;15.70;99702.00;;;;5011351;28;20485;-78
2023/10/30 03:26:19;;;;;;;2.92;1.05;;;14.10;67.70;15.70;99715.00;;;;5010218;28;20682;-78
2023/10/30 03:28:46;;;;;;;1.40;0.57;;;14.10;67.70;15.70;99715.00;;;;5003726;28;20666;-77
2023/10/30 03:31:13;;;;;;;2.30;0.80;;;14.10;67.70;15.70;99710.00;;;;5011275;28;20279;-77
2023/10/30 03:33:41;;;;;;;5.60;1.63;;;14.10;67.70;15.70;99713.00;;;;5012478;28;20311;-77
2023/10/30 03:36:09;;;;;;;3.10;1.00;;;14.10;67.70;15.70;99711.00;;;;5008880;28;20204;-77
2023/10/30 03:38:36;;;;;;;4.70;0.90;;;14.10;67.70;15.70;99711.00;;;;5010155;28;20200;-77
2023/10/30 03:41:04;;;;;;;2.20;0.70;;;14.10;67.70;15.70;99719.00;;;;5011949;28;20485;-78
2023/10/30 03:43:31;;;;;;;3.83;0.80;;;14.20;67.80;15.70;99712.00;;;;5011836;28;20219;-78
2023/10/30 03:45:58;;;;;;;3.20;0.73;;;14.10;67.70;15.70;99710.00;;;;5009389;28;20208;-78
2023/10/30 03:48:25;;;;;;;5.45;0.98;;;14.10;67.70;15.70;99712.00;;;;5009526;28;20209;-78
2023/10/30 03:50:52;;;;;;;2.75;1.00;;;14.20;67.70;15.70;99704.00;;;;5010663;28;20197;-78
2023/10/30 03:53:20;;;;;;;2.22;0.90;;;14.20;67.70;15.70;99694.00;;;;5002004;28;20193;-77
2023/10/30 03:55:47;;;;;;;2.47;0.43;;;14.20;68.30;15.70;99692.00;;;;5015600;28;20216;-78
2023/10/30 03:58:15;;;;;;;3.85;0.90;;;14.20;67.60;15.70;99696.00;;;;5014804;28;20197;-78
2023/10/30 04:00:42;;;;;;;4.15;0.60;;;14.20;67.60;15.70;99688.00;;;;5014515;28;20199;-78
2023/10/30 04:03:09;;;;;;;4.95;1.00;;;14.10;68.20;15.70;99683.00;;;;5015698;28;20297;-78
2023/10/30 04:05:38;;;;;;;3.30;0.73;;;14.10;67.50;15.70;99692.00;;;;5015645;28;20212;-80
2023/10/30 04:08:06;;;;;;;4.70;0.63;;;14.10;68.20;15.70;99684.00;;;;5015488;28;20228;-79
2023/10/30 04:10:34;;;;;;;4.82;1.05;;;14.10;67.50;15.70;99692.00;;;;5014730;28;20199;-79
2023/10/30 04:13:01;;;;;;;2.28;0.60;;;14.10;67.50;15.70;99681.00;;;;5014165;28;20527;-77
2023/10/30 04:15:28;;;;;;;4.40;0.90;;;14.10;67.40;15.70;99678.00;;;;5008988;28;20247;-78
2023/10/30 04:17:56;;;;;;;10.90;1.27;;;14.10;67.50;15.70;99682.00;;;;5014671;28;20225;-79
2023/10/30 04:20:23;;;;;;;1.55;0.52;;;14.10;67.50;15.70;99695.00;;;;5013300;28;20197;-78
2023/10/30 04:22:50;;;;;;;5.15;1.00;;;14.10;67.60;15.60;99690.00;;;;5005015;28;20263;-80
2023/10/30 04:25:19;;;;;;;3.92;0.88;;;14.00;67.50;15.60;99694.00;;;;5005300;28;20220;-78
2023/10/30 04:27:47;;;;;;;2.28;0.80;;;14.00;67.50;15.60;99693.00;;;;5004610;28;20204;-79
2023/10/30 04:30:15;;;;;;;5.65;0.95;;;14.00;67.50;15.60;99692.00;;;;5009469;28;20279;-80
2023/10/30 04:32:42;;;;;;;1.65;0.93;;;14.00;67.60;15.60;99696.00;;;;5004286;28;20197;-78
2023/10/30 04:35:09;;;;;;;1.40;0.50;;;14.00;67.60;15.60;99692.00;;;;5006050;28;20256;-78
2023/10/30 04:37:36;;;;;;;3.30;0.80;;;14.00;67.60;15.60;99697.00;;;;5004420;28;20201;-78
2023/10/30 04:40:05;;;;;;;1.88;0.60;;;14.00;67.60;15.60;99705.00;;;;5004852;28;20247;-79
2023/10/30 04:42:32;;;;;;;5.65;1.13;;;14.00;67.60;15.60;99703.00;;;;5015034;28;20193;-78
2023/10/30 04:44:59;;;;;;;2.20;0.60;;;14.00;67.60;15.60;99702.00;;;;5012566;28;20208;-78
2023/10/30 04:47:26;;;;;;;2.72;0.77;;;14.00;67.60;15.60;99697.00;;;;5013429;28;20193;-78
2023/10/30 04:49:53;;;;;;;2.38;1.13;;;14.00;67.50;15.60;99703.00;;;;5013760;28;20193;-78
2023/10/30 04:52:20;;;;;;;3.38;0.75;;;13.90;67.50;15.50;99695.00;;;;5008127;28;20458;-79
2023/10/30 04:54:47;;;;;;;3.03;1.00;;;13.90;67.50;15.50;99692.00;;;;5005139;28;20228;-78
2023/10/30 04:57:14;;;;;;;5.10;1.17;;;13.90;67.50;15.50;99694.00;;;;5004415;28;20195;-78
2023/10/30 04:59:41;;;;;;;2.05;1.05;;;13.90;67.50;15.50;99694.00;;;;5004835;28;20200;-78
2023/10/30 05:02:10;;;;;;;3.33;1.05;;;13.90;67.50;15.50;99691.00;;;;5005062;28;20745;-79
2023/10/30 05:04:37;;;;;;;7.05;1.40;;;13.90;67.50;15.50;99696.00;;;;5004725;28;20579;-79
2023/10/30 05:07:04;;;;;;;6.32;1.15;;;13.80;67.50;15.50;99701.00;;;;5003083;28;20196;-79
2023/10/30 05:09:31;;;;;;;3.28;0.98;;;13.80;67.60;15.40;99707.00;;;;5003656;28;20454;-81
2023/10/30 05:11:59;;;;;;;3.33;1.25;;;13.80;67.70;15.40;99695.00;;;;5006024;28;20558;-79
2023/10/30 05:14:26;;;;;;;3.97;0.90;;;13.80;67.80;15.40;99694.00;;;;5008261;28;22042;-78
2023/10/30 05:16:53;;;;;;;2.25;0.73;;;13.80;67.80;15.40;99700.00;;;;5012532;28;20239;-79
2023/10/30 05:19:22;;;;;;;3.38;0.70;;;13.80;67.90;15.40;99695.00;;;;5012282;28;20197;-78
2023/10/30 05:21:49;;;;;;;2.90;0.70;;;13.80;67.90;15.40;99692.00;;;;5012314;28;20574;-79
2023/10/30 05:24:16;;;;;;;3.50;0.73;;;13.70;67.90;15.40;99704.00;;;;5012927;28;20203;-78
2023/10/30 05:26:44;;;;;;;3.05;0.68;;;13.70;68.00;15.40;99696.00;;;;5012473;28;20295;-78
2023/10/30 05:29:11;;;;;;;2.50;0.80;;;13.70;68.00;15.30;99690.00;;;;5020246;28;20204;-77
2023/10/30 05:31:38;;;;;;;3.90;0.75;;;13.70;68.10;15.40;99691.00;;;;5025543;28;20217;-77
2023/10/30 05:34:06;;;;;;;3.58;0.90;;;13.70;68.10;15.40;99685.00;;;;5013717;28;20228;-78
2023/10/30 05:36:34;;;;;;;2.67;1.50;;;13.70;68.20;15.40;99696.00;;;;5010567;28;20192;-77
2023/10/30 05:39:01;;;;;;;2.53;0.80;;;13.70;68.20;15.40;99693.00;;;;5013513;28;20291;-77
2023/10/30 05:41:28;;;;;;;3.53;0.75;;;13.70;68.30;15.40;99704.00;;;;5013729;28;20192;-78
2023/10/30 05:43:55;;;;;;;5.47;0.93;;;13.80;68.40;15.30;99706.00;;;;5017138;28;20197;-77
2023/10/30 05:46:22;;;;;;;4.43;1.10;;;13.70;68.30;15.30;99710.00;;;;5012737;28;20285;-77
2023/10/30 05:48:49;;;;;;;5.15;1.05;;;13.70;68.40;15.30;99703.00;;;;5012231;28;20721;-77
2023/10/30 05:51:17;;;;;;;2.78;0.88;;;13.70;68.50;15.40;99691.00;;;;5010168;28;20193;-76
2023/10/30 05:53:47;;;;;;;3.28;0.50;;;13.70;68.50;15.30;99696.00;;;;5006249;28;20211;-77
2023/10/30 05:56:14;;;;;;;3.42;0.73;;;13.70;68.60;15.40;99698.00;;;;5011649;28;20259;-78
2023/10/30 05:58:41;;;;;;;3.75;0.90;;;13.70;68.50;15.40;99704.00;;;;5005211;28;20504;-77
2023/10/30 06:01:08;;;;;;;2.35;0.50;;;13.70;68.40;15.30;99711.00;;;;5004043;28;20193;-76
2023/10/30 06:03:35;;;;;;;3.13;0.60;;;13.70;68.40;15.40;99701.00;;;;5012472;28;20280;-77
2023/10/30 06:06:02;;;;;;;2.70;0.90;;;13.70;68.40;15.40;99706.00;;;;5010623;28;20201;-77
2023/10/30 06:08:29;;;;;;;2.88;0.85;;;13.70;68.30;15.30;99704.00;;;;5006743;28;20199;-77
2023/10/30 06:10:59;;;;;;;1.65;0.65;;;13.70;68.40;15.30;99703.00;;;;5007290;28;20232;-78
2023/10/30 06:13:26;;;;;;;3.63;0.95;;;13.70;68.40;15.40;99700.00;;;;5008818;28;20198;-77
2023/10/30 06:15:55;;;;;;;1.42;0.60;;;13.70;68.50;15.30;99691.00;;;;4999599;28;20216;-77
2023/10/30 06:18:23;;;;;;;3.42;0.60;;;13.70;68.50;15.30;99692.00;;;;5005228;28;20597;-77
2023/10/30 06:20:50;;;;;;;4.00;1.20;;;13.70;68.50;15.40;99704.00;;;;5011048;28;20197;-76
2023/10/30 06:23:17;;;;;;;2.90;0.63;;;13.70;68.50;15.30;99701.00;;;;5009390;28;20284;-79
2023/10/30 06:25:45;;;;;;;3.63;1.08;;;13.70;68.60;15.40;99716.00;;;;5002350;28;20193;-77
2023/10/30 06:28:15;;;;;;;3.47;0.70;;;13.70;68.60;15.30;99722.00;;;;5002356;28;20197;-77
2023/10/30 06:30:43;;;;;;;3.72;0.50;;;13.70;68.60;15.30;99723.00;;;;5009238;28;20220;-77
2023/10/30 06:33:10;;;;;;;1.83;0.77;;;13.70;68.60;15.30;99730.00;;;;5009918;28;20288;-77
2023/10/30 06:35:37;;;;;;;3.38;1.30;;;13.70;68.60;15.30;99735.00;;;;5011891;28;20303;-79
2023/10/30 06:38:04;;;;;;;2.00;0.65;;;13.70;68.60;15.40;99731.00;;;;5001786;28;20587;-78
2023/10/30 06:40:31;;;;;;;3.67;0.85;;;13.70;68.50;15.30;99735.00;;;;5002663;28;20193;-80
2023/10/30 06:42:58;;;;;;;4.70;0.80;;;13.70;68.60;15.40;99734.00;;;;5002551;28;20185;-79
2023/10/30 06:45:27;;;;;;;3.50;1.23;;;13.70;68.70;15.30;99730.00;;;;5008443;28;20577;-78
2023/10/30 06:47:54;;;;;;;4.80;0.80;;;13.70;68.70;15.30;99731.00;;;;5002371;28;20223;-80
2023/10/30 06:50:22;;;;;;;2.45;0.80;;;13.70;68.90;15.40;99734.00;;;;5010926;28;20240;-78
2023/10/30 06:52:49;;;;;;;1.23;0.70;;;13.70;68.80;15.40;99742.00;;;;5011688;28;20680;-80
2023/10/30 06:55:16;;;;;;;4.10;1.15;;;13.70;68.90;15.40;99732.00;;;;5004515;28;20717;-78
2023/10/30 06:57:43;;;;;;;3.15;1.17;;;13.70;68.90;15.40;99742.00;;;;5000813;28;20204;-78
2023/10/30 07:00:12;;;;;;;2.40;0.60;;;13.70;68.90;15.40;99744.00;;;;5003493;28;20676;-79
2023/10/30 07:02:41;;;;;;;3.13;0.60;;;13.70;68.90;15.40;99751.00;;;;5001985;28;20197;-77
2023/10/30 07:05:09;;;;;;;1.90;0.70;;;13.70;69.50;15.40;99755.00;;;;5003068;28;20654;-78
2023/10/30 07:07:36;;;;;;;3.88;0.80;;;13.70;68.90;15.40;99748.00;;;;5003434;28;20304;-78
2023/10/30 07:10:03;;;;;;;6.60;0.90;;;13.70;68.90;15.40;99756.00;;;;5006599;28;20207;-77
2023/10/30 07:12:30;;;;;;;3.92;0.93;;;13.70;68.90;15.50;99761.00;;;;5006246;28;20292;-76
2023/10/30 07:14:57;;;;;;;5.53;1.20;;;13.70;69.00;15.50;99762.00;;;;5012631;28;20694;-76
2023/10/30 07:17:24;;;;;;;6.25;1.15;;;13.70;69.00;15.50;99768.00;;;;5009776;28;20234;-77
2023/10/30 07:19:53;;;;;;;4.53;1.10;;;13.80;69.20;15.50;99767.00;;;;5007196;28;20228;-76
2023/10/30 07:22:20;;;;;;;4.05;1.08;;;13.80;69.20;15.50;99760.00;;;;5007854;28;20195;-77
2023/10/30 07:24:47;;;;;;;3.13;1.20;;;13.80;69.30;15.60;99765.00;;;;5011668;28;20208;-77
2023/10/30 07:27:14;;;;;;;4.93;0.93;;;13.80;69.30;15.60;99780.00;;;;5012098;28;20292;-76
2023/10/30 07:29:43;;;;;;;5.18;1.00;;;13.90;69.40;15.60;99783.00;;;;5011382;28;20255;-77
2023/10/30 07:32:10;;;;;;;5.60;1.40;;;13.90;69.50;15.70;99789.00;;;;4992455;28;20296;-77
2023/10/30 07:34:37;;;;;;;4.60;1.38;;;13.90;69.50;15.70;99790.00;;;;4992850;28;20197;-76
2023/10/30 07:37:06;;;;;;;3.92;0.88;;;14.00;69.60;15.80;99779.00;;;;5014949;28;20287;-77
2023/10/30 07:39:34;;;;;;;3.10;1.00;;;14.00;69.70;15.80;99779.00;;;;5014942;28;20292;-77
2023/10/30 07:42:01;;;;;;;5.00;0.90;;;14.00;69.70;15.80;99788.00;;;;5004563;28;20193;-77
2023/10/30 07:44:29;;;;;;;3.85;0.90;;;14.10;69.90;15.90;99793.00;;;;5006448;28;20571;-77
2023/10/30 07:46:57;;;;;;;4.20;1.00;;;14.10;70.00;15.90;99794.00;;;;5011866;28;20671;-77
2023/10/30 07:49:24;;;;;;;4.75;0.90;;;14.20;70.00;16.00;99792.00;;;;5011647;28;20284;-77
2023/10/30 07:51:51;;;;;;;2.20;0.50;;;14.30;70.20;16.10;99796.00;;;;5011853;28;20240;-77
2023/10/30 07:54:19;;;;;;;2.47;0.68;;;14.30;70.30;16.10;99811.00;;;;5014187;28;20199;-77
2023/10/30 07:56:49;;;;;;;6.45;1.20;;;14.40;70.40;16.20;99819.00;;;;5015389;28;20267;-77
2023/10/30 07:59:17;;;;;;;4.97;0.90;;;14.40;70.50;16.20;99820.00;;;;5009677;28;20207;-77
2023/10/30 08:01:45;;;;;;;4.18;1.08;;;14.50;70.50;16.30;99829.00;;;;5011583;28;20197;-78
2023/10/30 08:04:12;;;;;;;4.15;0.98;;;14.60;70.50;16.40;99830.00;;;;5007386;28;20193;-77
2023/10/30 08:06:39;;;;;;;4.60;0.95;;;14.70;70.50;16.50;99828.00;;;;5009913;28;20675;-78
2023/10/30 08:09:08;;;;;;;5.00;1.10;;;14.70;70.40;16.50;99819.00;;;;5010084;28;20292;-78
2023/10/30 08:11:37;;;;;;;5.45;1.02;;;14.80;70.50;16.60;99826.00;;;;5005537;28;20197;-76
2023/10/30 08:14:04;;;;;;;5.65;1.50;;;14.90;70.50;16.70;99821.00;;;;5007897;28;20588;-78
2023/10/30 08:16:32;;;;;;;4.05;0.75;;;15.00;70.50;16.80;99817.00;;;;5002382;28;20220;-77
2023/10/30 08:19:00;;;;;;;6.20;0.80;;;15.00;70.40;16.80;99825.00;;;;5007739;28;20292;-76
2023/10/30 08:21:27;;;;;;;5.60;1.17;;;15.10;70.40;16.90;99817.00;;;;5005987;28;20658;-75
2023/10/30 08:23:54;;;;;;;3.20;1.52;;;15.20;70.50;17.00;99820.00;;;;4999073;28;20204;-77
2023/10/30 08:26:22;;;;;;;4.93;1.20;;;15.30;70.40;17.10;99813.00;;;;5008204;28;20201;-76
2023/10/30 08:28:52;;;;;;;2.55;0.85;;;15.30;70.30;17.10;99809.00;;;;5008361;28;20287;-77
2023/10/30 08:31:20;;;;;;;2.47;0.80;;;15.40;70.30;17.20;99818.00;;;;5007366;28;20224;-76
2023/10/30 08:33:48;;;;;;;16.85;1.98;;;15.50;70.20;17.20;99807.00;;;;5008507;28;20275;-76
2023/10/30 08:36:22;;;;;;;67.45;6.70;;;15.50;70.00;17.20;99807.00;;;;5008516;28;20256;-76
2023/10/30 08:38:49;;;;;;;11.25;3.17;;;15.60;70.00;17.30;99803.00;;;;5009061;28;20208;-76
2023/10/30 08:41:19;;;;;;;12.40;2.05;;;15.60;69.90;17.40;99812.00;;;;5011687;28;20219;-77
2023/10/30 08:43:46;;;;;;;5.13;1.45;;;15.70;69.90;17.40;99808.00;;;;5011036;28;20228;-76
2023/10/30 08:46:19;;;;;;;6.32;1.10;;;15.80;69.90;17.50;99806.00;;;;5011701;28;20252;-76
2023/10/30 08:48:46;;;;;;;5.47;1.10;;;15.80;69.80;17.60;99805.00;;;;5013007;28;20237;-76
2023/10/30 08:51:14;;;;;;;12.70;1.35;;;15.80;69.70;17.60;99804.00;;;;5012660;28;20196;-78
2023/10/30 08:53:41;;;;;;;3.70;1.02;;;15.90;69.70;17.70;99806.00;;;;5012546;28;20201;-77
2023/10/30 08:56:08;;;;;;;5.20;0.95;;;15.90;69.60;17.70;99805.00;;;;5012736;28;20224;-76
2023/10/30 08:58:35;;;;;;;9.27;1.38;;;16.00;69.60;17.70;99802.00;;;;5011817;28;20204;-76
2023/10/30 09:01:03;;;;;;;7.18;1.20;;;16.00;70.20;17.80;99807.00;;;;5009284;28;20571;-78
2023/10/30 09:03:32;;;;;;;4.50;1.20;;;16.10;69.50;17.80;99805.00;;;;5011241;28;20666;-76
2023/10/30 09:05:59;;;;;;;4.63;0.98;;;16.10;69.40;17.80;99806.00;;;;5006656;28;20203;-75
2023/10/30 09:08:26;;;;;;;3.83;0.70;;;16.10;69.30;17.80;99805.00;;;;5007298;28;20537;-76
2023/10/30 09:10:53;;;;;;;4.75;1.35;;;16.20;69.20;17.90;99812.00;;;;5012603;28;20208;-76
2023/10/30 09:13:21;;;;;;;8.02;1.40;;;16.20;69.10;17.90;99813.00;;;;5006045;28;20201;-76
2023/10/30 09:15:48;;;;;;;2.38;0.80;;;16.20;69.10;17.90;99810.00;;;;5004093;28;20220;-76
2023/10/30 09:18:16;;;;;;;6.75;1.42;;;16.30;69.00;17.90;99804.00;;;;5008164;28;20456;-75
2023/10/30 09:20:44;;;;;;;33.08;2.17;;;16.30;69.00;18.00;99804.00;;;;5010577;28;20223;-76
2023/10/30 09:23:11;;;;;;;7.30;1.52;;;16.30;69.10;18.00;99801.00;;;;5007083;28;20265;-76
2023/10/30 09:25:38;;;;;;;4.28;1.00;;;16.30;69.00;18.00;99806.00;;;;5012270;28;20589;-75
2023/10/30 09:28:05;;;;;;;2.97;1.23;;;16.40;69.00;18.10;99807.00;;;;5012162;28;20201;-76
2023/10/30 09:30:33;;;;;;;5.90;1.10;;;16.40;69.00;18.10;99811.00;;;;5013051;28;20223;-77
2023/10/30 09:33:00;;;;;;;3.33;0.88;;;16.40;68.90;18.10;99821.00;;;;5025108;28;20680;-76
2023/10/30 09:35:31;;;;;;;8.88;1.27;;;16.40;68.90;18.10;99829.00;;;;5009651;28;20229;-76
2023/10/30 09:38:00;;;;;;;11.85;1.88;;;16.40;68.90;18.10;99829.00;;;;5011783;28;20204;-76
2023/10/30 09:40:28;;;;;;;3.28;0.90;;;16.50;68.90;18.20;99834.00;;;;5013002;28;20244;-76
2023/10/30 09:42:58;;;;;;;3.00;1.15;;;16.50;68.80;18.20;99830.00;;;;5012276;28;20205;-77
2023/10/30 09:45:28;;;;;;;8.93;1.48;;;16.50;68.90;18.20;99829.00;;;;5013670;28;20279;-77
2023/10/30 09:47:56;;;;;;;3.65;1.02;;;16.60;68.90;18.20;99826.00;;;;5012774;28;20286;-76
2023/10/30 09:50:26;;;;;;;7.60;2.08;;;16.60;68.90;18.30;99819.00;;;;5007849;28;20224;-77
2023/10/30 09:52:55;;;;;;;7.90;1.20;;;16.60;68.90;18.30;99820.00;;;;5003732;28;20193;-78
2023/10/30 09:55:25;;;;;;;13.55;1.40;;;16.70;69.00;18.40;99822.00;;;;5008887;28;20692;-77
2023/10/30 09:57:53;;;;;;;13.35;1.92;;;16.70;69.00;18.40;99817.00;;;;5006901;28;20201;-77
2023/10/30 10:00:27;;;;;;;4.82;1.10;;;16.70;69.00;18.40;99819.00;;;;5003694;28;20197;-76
2023/10/30 10:02:55;;;;;;;6.63;1.52;;;16.80;69.00;18.60;99819.00;;;;5003350;28;20892;-77
2023/10/30 10:05:22;;;;;;;2.47;0.82;;;16.80;69.00;18.60;99819.00;;;;5007282;28;20284;-75
2023/10/30 10:07:51;;;;;;;7.93;1.10;;;16.90;69.00;18.70;99825.00;;;;5007301;28;20201;-79
2023/10/30 10:10:19;;;;;;;2.58;1.00;;;16.90;69.00;18.70;99812.00;;;;5012562;28;20201;-78
2023/10/30 10:12:51;;;;;;;414.90;34.45;;;17.00;69.10;18.70;99813.00;;;;5008354;28;20205;-76
2023/10/30 10:15:20;;;;;;;11.15;3.30;;;17.10;69.10;18.80;99810.00;;;;5024833;28;20661;-76
2023/10/30 10:17:48;;;;;;;4.63;1.27;;;17.10;69.00;18.90;99804.00;;;;5010750;28;20713;-77
2023/10/30 10:20:17;;;;;;;4.72;1.17;;;17.20;69.00;18.90;99805.00;;;;5007612;28;20613;-76
2023/10/30 10:22:44;;;;;;;3.42;1.08;;;17.20;68.90;19.00;99799.00;;;;5010953;28;20193;-74
2023/10/30 10:25:11;;;;;;;7.80;1.45;;;17.30;68.70;19.00;99804.00;;;;5007697;28;20205;-76
2023/10/30 10:27:38;;;;;;;6.03;0.80;;;17.30;68.60;19.00;99798.00;;;;5010920;28;20642;-75
2023/10/30 10:30:09;;;;;;;4.22;1.27;;;17.40;68.50;19.00;99796.00;;;;5011014;28;20193;-76
2023/10/30 10:32:37;;;;;;;5.88;1.10;;;17.40;68.20;19.10;99789.00;;;;5010522;28;20263;-76
2023/10/30 10:35:07;;;;;;;7.15;1.08;;;17.40;68.10;19.10;99786.00;;;;5013417;28;20685;-75
2023/10/30 10:37:34;;;;;;;4.38;1.00;;;17.40;68.00;19.10;99780.00;;;;5011128;28;20262;-75
2023/10/30 10:40:05;;;;;;;7.28;1.10;;;17.40;67.90;19.10;99770.00;;;;5011114;28;20197;-75
2023/10/30 10:42:34;;;;;;;25.40;2.35;;;17.50;68.00;19.10;99759.00;;;;5012313;28;20225;-75
2023/10/30 10:45:02;;;;;;;3.88;1.02;;;17.50;68.30;19.20;99758.00;;;;5012013;28;20207;-75
2023/10/30 10:47:30;;;;;;;2.38;0.93;;;17.50;68.10;19.10;99761.00;;;;5011947;28;20189;-75
2023/10/30 10:49:58;;;;;;;4.80;0.95;;;17.50;68.10;19.20;99762.00;;;;5009247;28;20207;-75
2023/10/30 10:52:30;;;;;;;4.78;1.00;;;17.50;68.10;19.20;99759.00;;;;5011601;28;20291;-76
2023/10/30 10:55:03;;;;;;;2.65;1.13;;;17.60;68.20;19.20;99753.00;;;;5018443;28;20656;-76
2023/10/30 10:57:42;;;;;;;5.53;1.20;;;17.60;68.20;19.30;99756.00;;;;5017578;28;20227;-76